createdAt,value
2022-09-30T00:01:10.597Z,3.15
2022-09-30T00:03:37.190Z,3.00
2022-09-30T00:06:08.759Z,3.20
2022-09-30T00:08:37.168Z,2.97
2022-09-30T00:11:11.209Z,2.70
2022-09-30T00:13:40.124Z,2.78
2022-09-30T00:16:09.055Z,2.58
2022-09-30T00:18:36.753Z,2.95
2022-09-30T00:21:04.312Z,2.72
2022-09-30T00:23:34.443Z,2.65
2022-09-30T00:26:04.293Z,2.90
2022-09-30T00:28:31.109Z,2.88
2022-09-30T00:31:05.379Z,3.05
2022-09-30T00:33:32.234Z,2.63
2022-09-30T00:35:59.058Z,2.80
2022-09-30T00:38:27.766Z,2.60
2022-09-30T00:40:56.304Z,3.00
2022-09-30T00:43:43.979Z,2.67
2022-09-30T00:46:21.156Z,2.67
2022-09-30T00:48:53.900Z,2.80
2022-09-30T00:51:30.609Z,2.53
2022-09-30T00:54:01.951Z,2.75
2022-09-30T00:56:39.478Z,2.97
2022-09-30T00:59:19.793Z,3.00
2022-09-30T01:01:46.425Z,2.80
2022-09-30T01:04:16.043Z,2.90
2022-09-30T01:06:43.318Z,2.83
2022-09-30T01:09:11.584Z,2.67
2022-09-30T01:11:38.346Z,3.30
2022-09-30T01:14:14.520Z,3.45
2022-09-30T01:17:02.844Z,3.47
2022-09-30T01:20:05.844Z,3.63
2022-09-30T01:22:51.685Z,3.67
2022-09-30T01:25:21.027Z,3.55
2022-09-30T01:28:12.142Z,3.80
2022-09-30T01:31:00.511Z,4.75
2022-09-30T01:33:52.909Z,5.60
2022-09-30T01:39:23.164Z,4.70
2022-09-30T01:42:01.745Z,3.85
2022-09-30T01:45:04.260Z,3.97
2022-09-30T01:50:18.205Z,4.03
2022-09-30T01:53:09.593Z,4.60
2022-09-30T01:55:42.917Z,4.80
2022-09-30T01:58:16.121Z,4.30
2022-09-30T02:00:49.233Z,4.65
2022-09-30T02:03:22.354Z,4.00
2022-09-30T02:06:11.835Z,4.05
2022-09-30T02:08:44.253Z,4.15
2022-09-30T02:11:25.915Z,3.60
2022-09-30T02:14:06.031Z,4.15
2022-09-30T02:16:39.938Z,4.32
2022-09-30T02:19:11.318Z,3.95
2022-09-30T02:21:42.434Z,4.80
2022-09-30T02:24:14.743Z,4.40
2022-09-30T02:26:44.224Z,4.60
2022-09-30T02:29:19.559Z,4.60
2022-09-30T02:31:55.891Z,4.57
2022-09-30T02:34:33.890Z,5.28
2022-09-30T02:37:40.526Z,4.82
2022-09-30T02:40:07.379Z,5.10
2022-09-30T02:42:34.431Z,4.50
2022-09-30T02:45:08.648Z,4.40
2022-09-30T02:48:07.673Z,4.32
2022-09-30T02:51:00.610Z,4.68
2022-09-30T02:53:27.049Z,4.53
2022-09-30T02:56:23.531Z,4.50
2022-09-30T02:58:52.835Z,4.40
2022-09-30T03:01:20.074Z,5.10
2022-09-30T03:03:48.862Z,4.70
2022-09-30T03:06:15.701Z,5.20
2022-09-30T03:08:43.699Z,4.57
2022-09-30T03:11:25.098Z,4.65
2022-09-30T03:14:24.206Z,5.07
2022-09-30T03:17:25.884Z,4.22
2022-09-30T03:20:05.894Z,4.37
2022-09-30T03:23:15.143Z,4.55
2022-09-30T03:25:57.139Z,4.60
2022-09-30T03:28:36.294Z,4.18
2022-09-30T03:31:14.245Z,4.25
2022-09-30T03:34:07.206Z,4.82
2022-09-30T03:37:04.317Z,4.60
2022-09-30T03:39:49.262Z,4.40
2022-09-30T03:42:27.098Z,4.55
2022-09-30T03:45:03.997Z,4.55
2022-09-30T03:47:34.013Z,4.32
2022-09-30T03:50:07.141Z,4.50
2022-09-30T03:52:34.867Z,4.35
2022-09-30T03:55:04.423Z,4.47
2022-09-30T03:57:31.004Z,4.82
2022-09-30T03:59:58.133Z,4.55
2022-09-30T04:02:25.510Z,4.78
2022-09-30T04:04:52.093Z,4.50
2022-09-30T04:07:18.949Z,4.60
2022-09-30T04:09:45.514Z,4.60
2022-09-30T04:12:12.046Z,4.70
2022-09-30T04:14:38.510Z,5.15
2022-09-30T04:17:05.773Z,5.70
2022-09-30T04:19:32.313Z,5.43
2022-09-30T04:21:58.980Z,4.93
2022-09-30T04:24:25.525Z,4.68
2022-09-30T04:26:52.067Z,4.65
2022-09-30T04:29:18.620Z,4.50
2022-09-30T04:31:45.296Z,4.68
2022-09-30T04:34:11.919Z,4.30
2022-09-30T04:36:38.706Z,4.30
2022-09-30T04:39:05.628Z,4.75
2022-09-30T04:41:34.037Z,4.18
2022-09-30T04:44:05.994Z,4.32
2022-09-30T04:46:36.599Z,4.35
2022-09-30T04:49:09.107Z,4.28
2022-09-30T04:51:36.465Z,4.00
2022-09-30T04:54:03.565Z,4.15
2022-09-30T04:56:30.195Z,4.53
2022-09-30T04:58:57.392Z,4.50
2022-09-30T05:01:23.993Z,4.22
2022-09-30T05:03:50.772Z,4.35
2022-09-30T05:06:17.794Z,3.92
2022-09-30T05:08:46.113Z,3.60
2022-09-30T05:11:18.860Z,3.88
2022-09-30T05:13:46.129Z,3.85
2022-09-30T05:16:13.533Z,4.00
2022-09-30T05:18:42.682Z,3.53
2022-09-30T05:21:10.133Z,4.88
2022-09-30T05:23:36.897Z,4.60
2022-09-30T05:26:03.564Z,4.90
2022-09-30T05:28:31.383Z,4.47
2022-09-30T05:31:00.043Z,4.50
2022-09-30T05:33:29.411Z,4.43
2022-09-30T05:36:00.009Z,4.63
2022-09-30T05:38:26.683Z,4.40
2022-09-30T05:40:54.393Z,4.70
2022-09-30T05:43:20.952Z,4.70
2022-09-30T05:45:55.328Z,4.68
2022-09-30T05:48:23.379Z,4.78
2022-09-30T05:50:54.678Z,4.50
2022-09-30T05:53:21.150Z,4.72
2022-09-30T05:55:48.685Z,4.50
2022-09-30T05:58:16.570Z,4.30
2022-09-30T06:00:45.131Z,4.45
2022-09-30T06:03:11.837Z,4.82
2022-09-30T06:05:38.344Z,5.07
2022-09-30T06:08:07.133Z,5.30
2022-09-30T06:10:34.812Z,4.70
2022-09-30T06:13:04.727Z,4.60
2022-09-30T06:15:31.568Z,4.53
2022-09-30T06:17:58.368Z,5.32
2022-09-30T06:20:25.178Z,4.75
2022-09-30T06:22:51.652Z,4.95
2022-09-30T06:25:18.287Z,4.85
2022-09-30T06:27:49.978Z,4.75
2022-09-30T06:30:16.866Z,4.43
2022-09-30T06:32:43.956Z,4.60
2022-09-30T06:35:10.903Z,4.28
2022-09-30T06:37:38.648Z,4.70
2022-09-30T06:40:06.424Z,4.53
2022-09-30T06:42:33.877Z,4.50
2022-09-30T06:45:00.341Z,4.57
2022-09-30T06:47:26.930Z,4.72
2022-09-30T06:49:58.425Z,4.70
2022-09-30T06:52:26.347Z,5.32
2022-09-30T06:54:56.544Z,5.07
2022-09-30T06:57:25.100Z,5.03
2022-09-30T06:59:52.139Z,4.45
2022-09-30T07:02:18.833Z,4.80
2022-09-30T07:04:45.360Z,4.47
2022-09-30T07:07:12.195Z,4.22
2022-09-30T07:09:38.816Z,4.15
2022-09-30T07:12:07.354Z,4.30
2022-09-30T07:14:33.865Z,4.10
2022-09-30T07:17:04.107Z,4.10
2022-09-30T07:19:31.418Z,4.15
2022-09-30T07:22:18.202Z,5.15
2022-09-30T07:24:44.613Z,5.13
2022-09-30T07:27:13.685Z,5.35
2022-09-30T07:30:07.169Z,5.70
2022-09-30T07:32:27.965Z,5.57
2022-09-30T07:34:54.490Z,5.53
2022-09-30T07:37:21.654Z,5.47
2022-09-30T07:39:48.566Z,5.28
2022-09-30T07:42:22.640Z,5.30
2022-09-30T07:44:52.979Z,5.38
2022-09-30T07:47:20.480Z,5.40
2022-09-30T07:49:47.363Z,5.57
2022-09-30T07:52:14.325Z,5.85
2022-09-30T07:54:46.628Z,6.03
2022-09-30T07:57:16.367Z,6.28
2022-09-30T07:59:43.041Z,6.10
2022-09-30T08:02:15.674Z,6.15
2022-09-30T08:04:44.173Z,6.55
2022-09-30T08:07:11.787Z,6.10
2022-09-30T08:09:38.545Z,6.45
2022-09-30T08:12:05.433Z,6.75
2022-09-30T08:14:32.126Z,6.70
2022-09-30T08:17:00.253Z,7.07
2022-09-30T08:19:28.850Z,6.97
2022-09-30T08:21:55.610Z,6.85
2022-09-30T08:24:23.957Z,6.32
2022-09-30T08:26:51.240Z,6.70
2022-09-30T08:29:20.388Z,7.07
2022-09-30T08:31:56.695Z,6.45
2022-09-30T08:34:30.466Z,6.78
2022-09-30T08:36:59.669Z,4.00
2022-09-30T08:39:26.419Z,4.32
2022-09-30T08:42:25.468Z,3.97
2022-09-30T08:45:23.258Z,4.20
2022-09-30T08:48:14.583Z,4.10
2022-09-30T08:51:02.050Z,4.03
2022-09-30T08:53:49.292Z,4.55
2022-09-30T08:56:28.154Z,4.63
2022-09-30T08:58:59.447Z,5.00
2022-09-30T09:01:33.951Z,4.55
2022-09-30T09:04:02.514Z,4.03
2022-09-30T09:06:28.953Z,4.53
2022-09-30T09:09:07.397Z,5.00
2022-09-30T09:12:08.405Z,4.07
2022-09-30T09:14:44.072Z,5.00
2022-09-30T09:17:28.913Z,4.80
2022-09-30T09:20:17.388Z,4.90
2022-09-30T09:22:48.680Z,4.13
2022-09-30T09:25:18.079Z,4.28
2022-09-30T09:28:00.596Z,4.22
2022-09-30T09:30:36.223Z,4.32
2022-09-30T09:33:18.659Z,5.70
2022-09-30T09:35:54.234Z,4.55
2022-09-30T09:38:50.173Z,5.78
2022-09-30T09:41:41.225Z,5.93
2022-09-30T09:44:32.248Z,6.22
2022-09-30T09:47:15.170Z,5.43
2022-09-30T09:49:44.659Z,4.75
2022-09-30T09:52:12.191Z,5.03
2022-09-30T09:54:48.214Z,4.88
2022-09-30T09:57:27.746Z,4.55
2022-09-30T10:00:22.592Z,4.60
2022-09-30T10:03:06.503Z,3.95
2022-09-30T10:05:39.633Z,3.72
2022-09-30T10:08:17.338Z,2.97
2022-09-30T10:10:48.225Z,3.00
2022-09-30T10:13:24.530Z,3.42
2022-09-30T10:15:54.965Z,4.03
2022-09-30T10:18:37.493Z,3.72
2022-09-30T10:21:23.002Z,3.60
2022-09-30T10:23:49.650Z,3.53
2022-09-30T10:26:22.480Z,4.25
2022-09-30T10:28:52.862Z,4.05
2022-09-30T10:31:30.139Z,3.63
2022-09-30T10:34:21.753Z,3.80
2022-09-30T10:36:48.959Z,3.40
2022-09-30T10:39:35.786Z,3.42
2022-09-30T10:42:16.570Z,2.88
2022-09-30T10:44:46.673Z,3.10
2022-09-30T10:47:22.712Z,2.53
2022-09-30T10:49:51.507Z,2.10
2022-09-30T10:52:40.461Z,2.20
2022-09-30T10:55:25.321Z,2.20
2022-09-30T10:57:54.677Z,2.30
2022-09-30T11:00:23.790Z,2.10
2022-09-30T11:03:14.677Z,2.20
2022-09-30T11:05:44.098Z,1.85
2022-09-30T11:08:21.026Z,2.10
2022-09-30T11:11:10.335Z,2.00
2022-09-30T11:13:48.487Z,2.20
2022-09-30T11:16:27.270Z,3.75
2022-09-30T11:19:26.996Z,3.70
2022-09-30T11:21:59.360Z,3.22
2022-09-30T11:24:38.757Z,2.85
2022-09-30T11:27:14.271Z,5.68
2022-09-30T11:30:19.828Z,1.92
2022-09-30T11:33:11.105Z,1.75
2022-09-30T11:35:43.620Z,3.38
2022-09-30T11:38:47.786Z,2.10
2022-09-30T11:41:35.836Z,1.75
2022-09-30T11:44:08.318Z,1.60
2022-09-30T11:46:40.478Z,1.60
2022-09-30T11:49:21.172Z,1.70
2022-09-30T11:52:14.078Z,1.65
2022-09-30T11:54:47.322Z,1.50
2022-09-30T11:57:51.890Z,1.33
2022-09-30T12:00:19.973Z,1.50
2022-09-30T12:03:08.014Z,1.35
2022-09-30T12:05:43.808Z,1.30
2022-09-30T12:08:42.302Z,1.30
2022-09-30T12:11:13.717Z,1.38
2022-09-30T12:13:57.292Z,1.50
2022-09-30T12:16:31.945Z,1.40
2022-09-30T12:19:16.215Z,1.90
2022-09-30T12:22:05.501Z,2.22
2022-09-30T12:24:44.886Z,3.67
2022-09-30T12:27:14.381Z,1.88
2022-09-30T12:30:13.258Z,1.92
2022-09-30T12:32:42.825Z,1.70
2022-09-30T12:35:30.969Z,1.50
2022-09-30T12:38:03.513Z,1.40
2022-09-30T12:40:52.347Z,1.50
2022-09-30T12:43:37.506Z,1.40
2022-09-30T12:46:29.146Z,1.10
2022-09-30T12:49:01.522Z,1.60
2022-09-30T12:51:34.175Z,1.17
2022-09-30T12:54:24.519Z,1.40
2022-09-30T12:56:59.273Z,1.30
2022-09-30T12:59:30.088Z,1.60
2022-09-30T13:01:58.902Z,1.20
2022-09-30T13:04:33.148Z,1.20
2022-09-30T13:06:59.584Z,1.50
2022-09-30T13:09:34.947Z,1.23
2022-09-30T13:12:01.449Z,1.50
2022-09-30T13:14:35.990Z,1.60
2022-09-30T13:17:08.792Z,1.70
2022-09-30T13:19:51.293Z,1.25
2022-09-30T13:22:20.809Z,1.35
2022-09-30T13:25:05.380Z,1.50
2022-09-30T13:27:44.642Z,1.45
2022-09-30T13:30:14.674Z,1.60
2022-09-30T13:32:43.368Z,1.50
2022-09-30T13:35:34.695Z,1.77
2022-09-30T13:38:16.795Z,1.63
2022-09-30T13:43:34.069Z,1.73
2022-09-30T13:46:30.686Z,1.80
2022-09-30T13:49:05.176Z,1.50
2022-09-30T13:51:33.265Z,1.88
2022-09-30T13:54:06.917Z,1.77
2022-09-30T13:56:36.673Z,1.63
2022-09-30T13:59:13.407Z,1.60
2022-09-30T14:01:57.892Z,1.48
2022-09-30T14:04:36.266Z,1.55
2022-09-30T14:07:19.012Z,1.30
2022-09-30T14:09:55.653Z,1.88
2022-09-30T14:12:46.710Z,1.80
2022-09-30T14:15:42.534Z,1.60
2022-09-30T14:18:48.668Z,1.52
2022-09-30T14:21:35.558Z,1.50
2022-09-30T14:24:21.684Z,1.55
2022-09-30T14:27:06.782Z,1.50
2022-09-30T14:29:43.401Z,1.50
2022-09-30T14:32:31.506Z,1.60
2022-09-30T14:35:00.564Z,1.40
2022-09-30T14:37:33.261Z,1.63
2022-09-30T14:40:00.046Z,1.48
2022-09-30T14:42:34.921Z,1.60
2022-09-30T14:45:05.742Z,1.63
2022-09-30T14:47:40.506Z,1.45
2022-09-30T14:50:18.325Z,1.55
2022-09-30T14:52:47.353Z,4.63
2022-09-30T14:55:25.269Z,4.43
2022-09-30T14:57:57.984Z,4.97
2022-09-30T15:00:30.994Z,3.30
2022-09-30T15:02:59.492Z,3.97
2022-09-30T15:05:26.792Z,2.85
2022-09-30T15:07:53.757Z,2.30
2022-09-30T15:10:23.326Z,2.05
2022-09-30T15:12:51.803Z,2.20
2022-09-30T15:15:35.161Z,10.07
2022-09-30T15:18:43.022Z,8.85
2022-09-30T15:21:14.565Z,9.32
2022-09-30T15:23:44.784Z,9.38
2022-09-30T15:26:13.281Z,3.50
2022-09-30T15:28:40.541Z,2.25
2022-09-30T15:31:18.409Z,2.38
2022-09-30T15:33:45.724Z,2.45
2022-09-30T15:36:17.215Z,2.72
2022-09-30T15:38:51.751Z,25.38
2022-09-30T15:41:18.568Z,4.75
2022-09-30T15:43:51.053Z,2.22
2022-09-30T15:46:29.515Z,2.13
2022-09-30T15:48:58.911Z,2.10
2022-09-30T15:51:34.744Z,2.40
2022-09-30T15:54:16.347Z,2.05
2022-09-30T15:56:43.507Z,2.28
2022-09-30T15:59:11.809Z,1.58
2022-09-30T16:01:42.686Z,1.88
2022-09-30T16:04:24.409Z,2.28
2022-09-30T16:06:55.034Z,1.83
2022-09-30T16:09:33.675Z,2.20
2022-09-30T16:12:14.970Z,1.70
2022-09-30T16:14:49.332Z,1.80
2022-09-30T16:17:32.393Z,1.55
2022-09-30T16:20:10.979Z,1.70
2022-09-30T16:22:40.545Z,1.85
2022-09-30T16:25:27.876Z,2.40
2022-09-30T16:28:00.905Z,1.90
2022-09-30T16:30:28.835Z,2.10
2022-09-30T16:33:00.639Z,1.95
2022-09-30T16:35:28.470Z,1.95
2022-09-30T16:38:01.259Z,2.00
2022-09-30T16:40:28.914Z,2.30
2022-09-30T16:42:55.910Z,2.10
2022-09-30T16:45:22.967Z,2.20
2022-09-30T16:47:50.486Z,2.53
2022-09-30T16:50:30.372Z,2.60
2022-09-30T16:52:56.919Z,2.92
2022-09-30T16:55:25.422Z,2.30
2022-09-30T16:57:53.123Z,2.55
2022-09-30T17:00:19.739Z,2.25
2022-09-30T17:02:47.705Z,2.55
2022-09-30T17:05:18.550Z,2.78
2022-09-30T17:07:52.882Z,2.50
2022-09-30T17:10:23.647Z,2.70
2022-09-30T17:12:50.645Z,4.82
2022-09-30T17:15:18.772Z,3.10
2022-09-30T17:17:45.804Z,3.08
2022-09-30T17:20:12.599Z,2.55
2022-09-30T17:22:39.357Z,2.83
2022-09-30T17:25:06.585Z,3.33
2022-09-30T17:27:33.427Z,3.33
2022-09-30T17:30:01.230Z,3.10
2022-09-30T17:32:27.790Z,3.60
2022-09-30T17:34:54.240Z,3.78
2022-09-30T17:37:21.114Z,3.70
2022-09-30T17:39:47.619Z,3.75
2022-09-30T17:42:34.205Z,4.43
2022-09-30T17:45:00.662Z,4.93
2022-09-30T17:47:27.160Z,5.18
2022-09-30T17:49:54.105Z,5.68
2022-09-30T17:52:21.249Z,5.85
2022-09-30T17:54:52.304Z,5.57
2022-09-30T17:57:20.329Z,6.15
2022-09-30T17:59:46.839Z,6.95
2022-09-30T18:02:15.975Z,8.48
2022-09-30T18:04:42.488Z,12.52
2022-09-30T18:07:10.164Z,11.40
2022-09-30T18:09:37.920Z,9.75
2022-09-30T18:12:05.098Z,9.75
2022-09-30T18:14:38.120Z,9.60
2022-09-30T18:17:05.769Z,9.32
2022-09-30T18:19:32.994Z,9.68
2022-09-30T18:21:59.430Z,9.73
2022-09-30T18:24:44.852Z,8.90
2022-09-30T18:27:15.101Z,8.70
2022-09-30T18:29:41.784Z,7.78
2022-09-30T18:32:08.856Z,7.80
2022-09-30T18:34:35.412Z,6.43
2022-09-30T18:37:04.093Z,6.28
2022-09-30T18:39:31.261Z,6.00
2022-09-30T18:41:57.762Z,5.45
2022-09-30T18:44:25.625Z,5.45
2022-09-30T18:46:55.441Z,5.32
2022-09-30T18:49:24.836Z,5.50
2022-09-30T18:51:51.301Z,5.10
2022-09-30T18:54:18.076Z,4.82
2022-09-30T18:56:44.715Z,4.65
2022-09-30T18:59:18.169Z,4.20
2022-09-30T19:01:47.849Z,4.65
2022-09-30T19:04:14.587Z,3.75
2022-09-30T19:06:43.597Z,3.88
2022-09-30T19:09:10.332Z,4.03
2022-09-30T19:11:37.107Z,3.30
2022-09-30T19:14:05.624Z,3.88
2022-09-30T19:16:37.914Z,3.30
2022-09-30T19:19:06.369Z,3.47
2022-09-30T19:21:36.860Z,3.20
2022-09-30T19:24:07.954Z,3.30
2022-09-30T19:26:37.080Z,3.90
2022-09-30T19:29:05.433Z,3.90
2022-09-30T19:31:34.108Z,3.38
2022-09-30T19:34:01.938Z,3.38
2022-09-30T19:36:32.701Z,4.00
2022-09-30T19:39:11.247Z,3.25
2022-09-30T19:41:38.864Z,3.20
2022-09-30T19:44:05.366Z,3.58
2022-09-30T19:46:31.859Z,3.78
2022-09-30T19:48:58.374Z,3.17
2022-09-30T19:51:26.382Z,3.10
2022-09-30T19:54:05.055Z,4.10
2022-09-30T19:56:33.779Z,3.30
2022-09-30T19:59:04.002Z,3.30
2022-09-30T20:01:31.248Z,3.25
2022-09-30T20:04:04.677Z,3.00
2022-09-30T20:06:32.652Z,3.05
2022-09-30T20:09:00.999Z,3.10
2022-09-30T20:11:33.346Z,3.00
2022-09-30T20:14:19.521Z,3.08
2022-09-30T20:16:48.343Z,3.40
2022-09-30T20:19:16.218Z,3.20
2022-09-30T20:21:42.914Z,3.05
2022-09-30T20:24:11.384Z,3.45
2022-09-30T20:26:39.037Z,3.00
2022-09-30T20:29:08.731Z,3.08
2022-09-30T20:31:37.121Z,3.22
2022-09-30T20:34:04.202Z,3.03
2022-09-30T20:36:31.974Z,3.38
2022-09-30T20:39:00.583Z,2.83
2022-09-30T20:41:27.628Z,3.25
2022-09-30T20:43:54.188Z,2.90
2022-09-30T20:46:22.494Z,2.83
2022-09-30T20:48:49.899Z,2.92
2022-09-30T20:51:20.563Z,3.65
2022-09-30T20:53:51.973Z,3.28
2022-09-30T20:56:21.463Z,3.00
2022-09-30T20:58:49.462Z,3.25
2022-09-30T21:01:18.412Z,2.90
2022-09-30T21:03:52.494Z,2.92
2022-09-30T21:06:21.298Z,3.08
2022-09-30T21:08:48.879Z,3.00
2022-09-30T21:11:15.471Z,2.80
2022-09-30T21:13:43.172Z,2.83
2022-09-30T21:16:12.273Z,3.10
2022-09-30T21:18:38.864Z,3.47
2022-09-30T21:21:05.788Z,3.08
2022-09-30T21:23:37.562Z,3.22
2022-09-30T21:26:06.816Z,3.05
2022-09-30T21:28:33.885Z,2.63
2022-09-30T21:31:05.358Z,2.75
2022-09-30T21:33:31.856Z,2.90
2022-09-30T21:36:00.186Z,2.60
2022-09-30T21:38:26.808Z,2.60
2022-09-30T21:41:01.382Z,2.97
2022-09-30T21:43:31.893Z,2.97
2022-09-30T21:46:00.366Z,2.88
2022-09-30T21:48:27.771Z,2.30
2022-09-30T21:50:55.314Z,2.47
2022-09-30T21:53:27.302Z,2.38
2022-09-30T21:58:23.853Z,2.42
2022-09-30T22:00:50.698Z,2.22
2022-09-30T22:03:17.610Z,2.78
2022-09-30T22:05:51.000Z,2.40
2022-09-30T22:08:17.716Z,2.67
2022-09-30T22:10:44.468Z,2.58
2022-09-30T22:13:11.902Z,2.70
2022-09-30T22:15:38.831Z,2.50
2022-09-30T22:18:08.246Z,2.20
2022-09-30T22:20:38.083Z,2.35
2022-09-30T22:23:04.599Z,2.65
2022-09-30T22:25:32.602Z,2.55
2022-09-30T22:27:59.466Z,2.70
2022-09-30T22:30:28.845Z,2.30
2022-09-30T22:33:13.654Z,2.80
2022-09-30T22:35:58.843Z,2.28
2022-09-30T22:38:25.753Z,2.80
2022-09-30T22:40:55.774Z,2.58
2022-09-30T22:43:26.535Z,2.90
2022-09-30T22:46:04.595Z,2.58
2022-09-30T22:48:31.874Z,2.70
2022-09-30T22:50:59.156Z,2.50
2022-09-30T22:53:26.916Z,2.90
2022-09-30T22:55:53.912Z,2.90
2022-09-30T22:58:21.213Z,2.30
2022-09-30T23:00:58.832Z,2.70
2022-09-30T23:03:25.898Z,2.88
2022-09-30T23:05:59.042Z,2.80
2022-09-30T23:08:34.276Z,2.50
2022-09-30T23:11:00.905Z,2.85
2022-09-30T23:13:30.663Z,2.88
2022-09-30T23:15:58.435Z,3.10
2022-09-30T23:18:26.370Z,3.33
2022-09-30T23:21:01.347Z,2.97
2022-09-30T23:23:31.795Z,2.90
2022-09-30T23:26:06.152Z,3.20
2022-09-30T23:28:32.713Z,3.05
2022-09-30T23:31:06.450Z,3.05
2022-09-30T23:33:33.104Z,3.20
2022-09-30T23:36:02.368Z,2.80
2022-09-30T23:38:29.579Z,3.13
2022-09-30T23:40:59.177Z,3.17
2022-09-30T23:43:34.085Z,2.97
2022-09-30T23:46:01.603Z,2.90
2022-09-30T23:48:28.471Z,3.15
2022-09-30T23:50:55.033Z,3.10
2022-09-30T23:53:25.445Z,3.03
2022-09-30T23:56:02.133Z,2.60
2022-09-30T23:58:29.445Z,2.72
